createdAt,value
2022-08-16T00:00:04.194Z,18.40
2022-08-16T00:00:59.702Z,15.50
2022-08-16T00:01:59.916Z,17.20
2022-08-16T00:02:58.664Z,33.90
2022-08-16T00:03:58.648Z,16.30
2022-08-16T00:04:59.917Z,16.60
2022-08-16T00:05:58.633Z,14.20
2022-08-16T00:06:58.602Z,18.50
2022-08-16T00:07:58.592Z,19.00
2022-08-16T00:08:58.587Z,22.30
2022-08-16T00:09:58.853Z,17.60
2022-08-16T00:10:58.544Z,16.00
2022-08-16T00:11:58.793Z,15.50
2022-08-16T00:12:59.033Z,16.10
2022-08-16T00:13:58.505Z,18.70
2022-08-16T00:14:58.507Z,15.60
2022-08-16T00:15:58.476Z,16.90
2022-08-16T00:17:15.845Z,14.80
2022-08-16T00:17:59.590Z,16.40
2022-08-16T00:18:58.447Z,19.30
2022-08-16T00:19:58.441Z,17.10
2022-08-16T00:20:58.408Z,16.30
2022-08-16T00:22:03.042Z,15.90
2022-08-16T00:22:59.392Z,18.60
2022-08-16T00:23:58.500Z,15.90
2022-08-16T00:24:58.359Z,16.60
2022-08-16T00:26:35.511Z,16.10
2022-08-16T00:26:59.345Z,17.20
2022-08-16T00:27:58.320Z,18.90
2022-08-16T00:28:58.315Z,15.50
2022-08-16T00:30:00.499Z,15.10
2022-08-16T00:31:01.112Z,29.40
2022-08-16T00:31:59.498Z,25.10
2022-08-16T00:32:58.242Z,39.30
2022-08-16T00:33:58.243Z,30.60
2022-08-16T00:34:58.237Z,27.90
2022-08-16T00:35:58.214Z,27.80
2022-08-16T00:36:58.207Z,21.00
2022-08-16T00:37:59.458Z,23.00
2022-08-16T00:38:58.165Z,25.10
2022-08-16T00:39:58.993Z,38.80
2022-08-16T00:40:58.200Z,26.60
2022-08-16T00:41:58.163Z,31.50
2022-08-16T00:42:58.124Z,32.30
2022-08-16T00:43:58.119Z,17.90
2022-08-16T00:44:58.087Z,15.20
2022-08-16T00:46:00.489Z,17.80
2022-08-16T00:47:02.483Z,37.20
2022-08-16T00:47:59.048Z,47.10
2022-08-16T00:48:58.044Z,27.80
2022-08-16T00:49:58.033Z,37.40
2022-08-16T00:50:58.003Z,17.50
2022-08-16T00:51:58.013Z,32.00
2022-08-16T00:52:58.226Z,17.30
2022-08-16T00:53:57.969Z,43.10
2022-08-16T00:54:57.964Z,32.20
2022-08-16T00:55:57.942Z,19.60
2022-08-16T00:57:00.071Z,18.70
2022-08-16T00:57:59.619Z,26.70
2022-08-16T00:58:57.893Z,31.40
2022-08-16T00:59:59.446Z,31.40
2022-08-16T01:00:57.931Z,30.20
2022-08-16T01:01:57.853Z,31.20
2022-08-16T01:02:57.859Z,52.50
2022-08-16T01:03:57.834Z,24.30
2022-08-16T01:05:10.868Z,56.30
2022-08-16T01:05:58.819Z,30.20
2022-08-16T01:07:01.238Z,46.40
2022-08-16T01:07:58.617Z,17.20
2022-08-16T01:08:59.888Z,20.20
2022-08-16T01:09:57.746Z,24.70
2022-08-16T01:10:59.894Z,23.10
2022-08-16T01:11:57.742Z,29.20
2022-08-16T01:12:57.730Z,29.40
2022-08-16T01:13:57.689Z,26.80
2022-08-16T01:14:57.686Z,24.00
2022-08-16T01:15:57.668Z,22.70
2022-08-16T01:16:57.662Z,17.10
2022-08-16T01:17:57.655Z,17.80
2022-08-16T01:18:57.620Z,16.40
2022-08-16T01:19:57.625Z,19.90
2022-08-16T01:20:57.591Z,16.50
2022-08-16T01:21:57.582Z,14.50
2022-08-16T01:22:59.245Z,14.20
2022-08-16T01:23:58.570Z,14.90
2022-08-16T01:24:57.548Z,15.10
2022-08-16T01:26:00.248Z,16.30
2022-08-16T01:26:58.511Z,15.20
2022-08-16T01:27:58.503Z,15.50
2022-08-16T01:28:57.497Z,14.90
2022-08-16T01:29:59.506Z,15.10
2022-08-16T01:30:57.454Z,17.70
2022-08-16T01:31:57.459Z,15.60
2022-08-16T01:33:02.173Z,15.10
2022-08-16T01:33:58.416Z,15.90
2022-08-16T01:34:57.444Z,17.00
2022-08-16T01:35:57.406Z,17.70
2022-08-16T01:36:58.453Z,17.50
2022-08-16T01:37:57.380Z,15.20
2022-08-16T01:38:57.605Z,15.20
2022-08-16T01:39:57.386Z,14.70
2022-08-16T01:40:57.319Z,14.00
2022-08-16T01:41:57.309Z,14.40
2022-08-16T01:42:57.303Z,14.10
2022-08-16T01:43:57.296Z,14.20
2022-08-16T01:44:57.261Z,14.70
2022-08-16T01:45:57.693Z,15.00
2022-08-16T01:46:57.246Z,14.50
2022-08-16T01:47:57.222Z,15.80
2022-08-16T01:48:57.216Z,14.20
2022-08-16T01:50:42.999Z,12.80
2022-08-16T01:51:08.467Z,12.10
2022-08-16T01:51:58.199Z,11.90
2022-08-16T01:52:57.154Z,11.70
2022-08-16T01:53:57.142Z,11.30
2022-08-16T01:54:57.141Z,14.10
2022-08-16T01:55:57.115Z,13.80
2022-08-16T01:56:57.120Z,12.50
2022-08-16T01:57:57.100Z,13.40
2022-08-16T01:58:57.244Z,14.10
2022-08-16T01:59:57.056Z,15.10
2022-08-16T02:00:57.060Z,20.80
2022-08-16T02:02:00.177Z,14.50
2022-08-16T02:02:57.019Z,16.10
2022-08-16T02:03:58.346Z,15.00
2022-08-16T02:04:57.998Z,15.10
2022-08-16T02:05:57.326Z,14.00
2022-08-16T02:06:56.982Z,14.20
2022-08-16T02:07:56.940Z,19.70
2022-08-16T02:08:56.944Z,18.60
2022-08-16T02:09:59.485Z,16.50
2022-08-16T02:10:56.958Z,16.50
2022-08-16T02:11:56.906Z,15.80
2022-08-16T02:13:00.668Z,16.20
2022-08-16T02:13:56.862Z,16.00
2022-08-16T02:14:56.868Z,14.60
2022-08-16T02:15:56.847Z,13.80
2022-08-16T02:16:56.864Z,14.90
2022-08-16T02:17:56.807Z,13.90
2022-08-16T02:18:56.819Z,12.90
2022-08-16T02:19:58.457Z,13.90
2022-08-16T02:20:56.788Z,14.20
2022-08-16T02:22:08.460Z,13.30
2022-08-16T02:22:57.746Z,13.70
2022-08-16T02:23:56.740Z,12.20
2022-08-16T02:24:56.717Z,12.80
2022-08-16T02:25:56.697Z,12.60
2022-08-16T02:26:56.709Z,12.00
2022-08-16T02:27:56.677Z,11.60
2022-08-16T02:28:56.682Z,11.50
2022-08-16T02:30:04.964Z,12.60
2022-08-16T02:30:57.648Z,12.90
2022-08-16T02:32:03.737Z,15.00
2022-08-16T02:32:57.632Z,12.90
2022-08-16T02:33:56.604Z,11.10
2022-08-16T02:34:56.700Z,13.00
2022-08-16T02:36:00.127Z,13.00
2022-08-16T02:36:56.676Z,13.80
2022-08-16T02:37:56.543Z,12.80
2022-08-16T02:38:57.546Z,12.60
2022-08-16T02:39:56.521Z,13.50
2022-08-16T02:40:56.531Z,12.60
2022-08-16T02:41:56.498Z,13.00
2022-08-16T02:42:56.593Z,13.00
2022-08-16T02:43:56.479Z,12.60
2022-08-16T02:44:56.456Z,14.90
2022-08-16T02:45:56.472Z,12.30
2022-08-16T02:46:56.440Z,12.20
2022-08-16T02:48:01.029Z,13.00
2022-08-16T02:48:57.404Z,12.70
2022-08-16T02:50:52.163Z,12.80
2022-08-16T02:51:11.086Z,13.40
2022-08-16T02:51:57.356Z,12.90
2022-08-16T02:52:56.361Z,12.50
2022-08-16T02:53:56.542Z,12.20
2022-08-16T02:54:56.319Z,12.30
2022-08-16T02:55:56.321Z,12.00
2022-08-16T02:56:56.289Z,11.30
2022-08-16T02:57:56.279Z,10.80
2022-08-16T02:58:56.322Z,10.90
2022-08-16T02:59:56.260Z,11.10
2022-08-16T03:00:57.277Z,13.10
2022-08-16T03:01:56.248Z,12.30
2022-08-16T03:02:56.421Z,13.60
2022-08-16T03:04:29.073Z,12.90
2022-08-16T03:04:57.300Z,12.30
2022-08-16T03:05:56.205Z,13.00
2022-08-16T03:06:57.249Z,11.80
2022-08-16T03:07:56.143Z,11.50
2022-08-16T03:08:56.147Z,13.20
2022-08-16T03:09:56.131Z,13.80
2022-08-16T03:10:59.307Z,14.10
2022-08-16T03:11:56.100Z,16.20
2022-08-16T03:12:56.789Z,15.50
2022-08-16T03:13:56.646Z,15.00
2022-08-16T03:14:56.071Z,18.70
2022-08-16T03:15:56.036Z,21.00
2022-08-16T03:16:59.065Z,22.00
2022-08-16T03:17:56.061Z,22.00
2022-08-16T03:18:55.998Z,23.10
2022-08-16T03:20:02.463Z,21.60
2022-08-16T03:20:56.990Z,21.10
2022-08-16T03:21:56.083Z,21.50
2022-08-16T03:22:56.592Z,22.00
2022-08-16T03:23:55.943Z,28.80
2022-08-16T03:24:57.318Z,23.40
2022-08-16T03:25:55.910Z,24.40
2022-08-16T03:26:58.053Z,25.50
2022-08-16T03:27:55.881Z,25.20
2022-08-16T03:28:55.883Z,26.20
2022-08-16T03:29:55.864Z,25.10
2022-08-16T03:30:55.841Z,24.90
2022-08-16T03:31:55.836Z,24.20
2022-08-16T03:32:55.813Z,26.90
2022-08-16T03:33:55.793Z,28.00
2022-08-16T03:34:55.798Z,24.60
2022-08-16T03:35:56.989Z,21.90
2022-08-16T03:36:55.757Z,21.20
2022-08-16T03:38:02.724Z,28.10
2022-08-16T03:38:56.748Z,29.20
2022-08-16T03:39:56.444Z,25.80
2022-08-16T03:40:56.720Z,26.20
2022-08-16T03:41:59.660Z,26.50
2022-08-16T03:43:19.012Z,25.70
2022-08-16T03:43:56.701Z,27.80
2022-08-16T03:45:03.734Z,25.70
2022-08-16T03:45:56.636Z,29.40
2022-08-16T03:46:55.642Z,27.50
2022-08-16T03:47:58.237Z,28.60
2022-08-16T03:48:55.614Z,41.80
2022-08-16T03:49:55.595Z,36.30
2022-08-16T03:50:59.463Z,47.40
2022-08-16T03:51:55.551Z,54.50
2022-08-16T03:53:01.317Z,47.40
2022-08-16T03:54:00.687Z,48.20
2022-08-16T03:54:57.907Z,50.40
2022-08-16T03:55:55.515Z,61.30
2022-08-16T03:56:57.168Z,57.10
2022-08-16T03:57:55.523Z,58.20
2022-08-16T03:58:55.477Z,42.50
2022-08-16T03:59:55.452Z,42.80
2022-08-16T04:00:59.282Z,35.20
2022-08-16T04:01:55.449Z,36.30
2022-08-16T04:02:55.404Z,45.60
2022-08-16T04:03:55.408Z,57.80
2022-08-16T04:04:55.385Z,57.40
2022-08-16T04:05:55.365Z,55.10
2022-08-16T04:06:55.420Z,57.10
2022-08-16T04:07:55.336Z,56.90
2022-08-16T04:08:55.339Z,52.30
2022-08-16T04:09:55.321Z,50.90
2022-08-16T04:10:55.411Z,47.20
2022-08-16T04:11:55.291Z,49.60
2022-08-16T04:12:58.383Z,47.30
2022-08-16T04:14:01.432Z,47.10
2022-08-16T04:14:56.261Z,46.40
2022-08-16T04:15:55.229Z,45.10
2022-08-16T04:16:55.234Z,43.80
2022-08-16T04:17:55.216Z,49.30
2022-08-16T04:19:01.213Z,49.90
2022-08-16T04:19:58.360Z,50.60
2022-08-16T04:20:56.385Z,45.50
2022-08-16T04:21:56.812Z,50.00
2022-08-16T04:22:55.152Z,45.40
2022-08-16T04:23:55.135Z,46.00
2022-08-16T04:24:55.562Z,40.80
2022-08-16T04:25:55.092Z,43.90
2022-08-16T04:26:55.118Z,45.90
2022-08-16T04:27:56.011Z,42.90
2022-08-16T04:29:15.230Z,42.30
2022-08-16T04:30:02.916Z,41.80
2022-08-16T04:30:56.025Z,41.40
2022-08-16T04:31:56.327Z,43.80
2022-08-16T04:32:55.619Z,42.30
2022-08-16T04:33:54.976Z,42.30
2022-08-16T04:34:54.988Z,41.80
2022-08-16T04:35:54.958Z,35.90
2022-08-16T04:36:54.960Z,38.80
2022-08-16T04:37:54.947Z,41.60
2022-08-16T04:38:55.031Z,35.90
2022-08-16T04:39:57.138Z,40.40
2022-08-16T04:40:54.902Z,36.50
2022-08-16T04:41:56.634Z,34.30
2022-08-16T04:42:55.041Z,33.20
2022-08-16T04:43:54.854Z,33.30
2022-08-16T04:44:55.771Z,36.50
2022-08-16T04:46:00.416Z,33.50
2022-08-16T04:47:02.254Z,37.40
2022-08-16T04:47:55.970Z,38.90
2022-08-16T04:48:54.795Z,35.80
2022-08-16T04:49:54.806Z,39.30
2022-08-16T04:50:54.753Z,43.80
2022-08-16T04:51:55.463Z,42.10
2022-08-16T04:52:55.749Z,47.20
2022-08-16T04:53:54.703Z,52.30
2022-08-16T04:54:54.715Z,60.00
2022-08-16T04:55:54.698Z,54.80
2022-08-16T04:56:54.674Z,57.00
2022-08-16T04:57:54.656Z,55.20
2022-08-16T04:58:57.695Z,52.10
2022-08-16T04:59:54.627Z,51.20
2022-08-16T05:00:54.637Z,54.20
2022-08-16T05:01:58.569Z,51.10
2022-08-16T05:02:54.913Z,49.10
2022-08-16T05:03:59.725Z,40.40
2022-08-16T05:04:55.558Z,41.50
2022-08-16T05:05:59.172Z,42.90
2022-08-16T05:06:55.551Z,42.10
2022-08-16T05:07:59.403Z,41.70
2022-08-16T05:08:56.570Z,41.20
2022-08-16T05:09:54.548Z,41.80
2022-08-16T05:10:54.938Z,43.00
2022-08-16T05:11:57.215Z,41.90
2022-08-16T05:12:54.452Z,43.80
2022-08-16T05:13:54.431Z,46.10
2022-08-16T05:15:02.494Z,42.50
2022-08-16T05:15:55.520Z,40.10
2022-08-16T05:16:54.414Z,44.90
2022-08-16T05:17:58.897Z,43.80
2022-08-16T05:18:56.725Z,47.20
2022-08-16T05:19:57.356Z,42.80
2022-08-16T05:21:09.475Z,41.50
2022-08-16T05:21:55.324Z,39.80
2022-08-16T05:22:54.328Z,45.80
2022-08-16T05:23:55.745Z,46.60
2022-08-16T05:24:55.132Z,41.40
2022-08-16T05:25:54.287Z,45.60
2022-08-16T05:26:54.265Z,41.30
2022-08-16T05:27:54.247Z,36.10
2022-08-16T05:28:55.214Z,41.90
2022-08-16T05:30:01.059Z,50.20
2022-08-16T05:30:55.208Z,38.20
2022-08-16T05:31:54.228Z,37.20
2022-08-16T05:32:54.189Z,36.90
2022-08-16T05:33:54.699Z,41.60
2022-08-16T05:34:54.171Z,37.20
2022-08-16T05:35:55.694Z,43.70
2022-08-16T05:36:54.165Z,36.10
2022-08-16T05:37:54.124Z,33.60
2022-08-16T05:38:54.100Z,42.10
2022-08-16T05:39:55.460Z,33.70
2022-08-16T05:40:59.770Z,42.70
2022-08-16T05:41:55.091Z,34.10
2022-08-16T05:42:56.028Z,32.90
2022-08-16T05:43:59.180Z,35.90
2022-08-16T05:44:55.023Z,37.40
2022-08-16T05:45:54.003Z,36.50
2022-08-16T05:46:54.008Z,53.60
2022-08-16T05:47:59.483Z,39.50
2022-08-16T05:48:59.059Z,45.00
2022-08-16T05:49:54.959Z,46.90
2022-08-16T05:50:53.937Z,52.50
2022-08-16T05:51:53.939Z,48.90
2022-08-16T05:52:53.917Z,44.90
2022-08-16T05:53:53.897Z,62.10
2022-08-16T05:55:00.977Z,48.60
2022-08-16T05:55:54.867Z,39.50
2022-08-16T05:56:53.872Z,37.30
2022-08-16T05:57:53.861Z,42.50
2022-08-16T05:58:53.829Z,53.70
2022-08-16T05:59:59.866Z,36.90
2022-08-16T06:00:54.821Z,34.80
2022-08-16T06:01:53.813Z,36.40
2022-08-16T06:02:53.778Z,34.00
2022-08-16T06:03:53.772Z,28.50
2022-08-16T06:04:54.367Z,29.50
2022-08-16T06:05:53.732Z,29.00
2022-08-16T06:06:56.305Z,50.10
2022-08-16T06:07:58.373Z,26.60
2022-08-16T06:08:54.707Z,24.90
2022-08-16T06:09:53.687Z,26.30
2022-08-16T06:11:09.486Z,32.00
2022-08-16T06:11:54.661Z,30.60
2022-08-16T06:12:55.875Z,29.50
2022-08-16T06:13:55.389Z,31.90
2022-08-16T06:14:53.627Z,29.60
2022-08-16T06:15:53.609Z,25.50
2022-08-16T06:16:53.578Z,36.50
2022-08-16T06:17:53.683Z,25.20
2022-08-16T06:18:53.680Z,28.20
2022-08-16T06:19:53.538Z,27.50
2022-08-16T06:20:55.568Z,25.10
2022-08-16T06:21:55.088Z,27.30
2022-08-16T06:22:58.999Z,33.80
2022-08-16T06:23:54.709Z,30.30
2022-08-16T06:24:55.820Z,27.30
2022-08-16T06:25:53.587Z,32.30
2022-08-16T06:26:57.930Z,33.30
2022-08-16T06:27:58.224Z,33.30
2022-08-16T06:28:53.424Z,24.40
2022-08-16T06:29:53.455Z,34.00
2022-08-16T06:30:53.391Z,36.90
2022-08-16T06:31:53.381Z,39.10
2022-08-16T06:32:53.657Z,39.30
2022-08-16T06:33:53.369Z,30.10
2022-08-16T06:34:57.064Z,30.90
2022-08-16T06:35:54.919Z,32.20
2022-08-16T06:36:59.296Z,24.70
2022-08-16T06:37:54.296Z,23.30
2022-08-16T06:38:56.411Z,30.40
2022-08-16T06:39:53.317Z,30.00
2022-08-16T06:40:53.269Z,27.10
2022-08-16T06:41:53.379Z,25.60
2022-08-16T06:42:57.279Z,28.80
2022-08-16T06:43:53.230Z,31.50
2022-08-16T06:44:53.196Z,34.40
2022-08-16T06:45:53.188Z,39.00
2022-08-16T06:46:53.182Z,36.40
2022-08-16T06:47:57.023Z,27.70
2022-08-16T06:48:53.149Z,33.80
2022-08-16T06:49:54.161Z,34.00
2022-08-16T06:50:53.133Z,36.10
2022-08-16T06:51:53.110Z,28.10
2022-08-16T06:53:00.449Z,32.80
2022-08-16T06:53:54.103Z,33.70
2022-08-16T06:54:53.071Z,31.10
2022-08-16T06:55:53.836Z,37.80
2022-08-16T06:56:54.121Z,34.80
2022-08-16T06:57:53.033Z,34.70
2022-08-16T06:58:53.034Z,38.80
2022-08-16T06:59:58.428Z,42.50
2022-08-16T07:00:54.047Z,27.40
2022-08-16T07:01:55.161Z,40.70
2022-08-16T07:02:54.277Z,29.00
2022-08-16T07:03:55.901Z,25.00
2022-08-16T07:04:52.949Z,24.20
2022-08-16T07:05:52.939Z,26.10
2022-08-16T07:06:53.063Z,24.40
2022-08-16T07:07:54.095Z,27.00
2022-08-16T07:08:52.879Z,28.50
2022-08-16T07:09:52.868Z,29.50
2022-08-16T07:10:52.862Z,32.40
2022-08-16T07:11:52.847Z,33.40
2022-08-16T07:13:03.571Z,30.20
2022-08-16T07:14:00.776Z,29.00
2022-08-16T07:14:57.334Z,26.70
2022-08-16T07:15:53.805Z,23.40
2022-08-16T07:16:52.772Z,43.80
2022-08-16T07:17:52.773Z,40.90
2022-08-16T07:18:59.389Z,29.40
2022-08-16T07:20:03.185Z,24.90
2022-08-16T07:20:53.941Z,25.50
2022-08-16T07:21:59.540Z,18.50
2022-08-16T07:22:58.758Z,40.30
2022-08-16T07:23:58.014Z,25.10
2022-08-16T07:24:53.664Z,21.90
2022-08-16T07:25:52.777Z,26.60
2022-08-16T07:26:52.657Z,54.90
2022-08-16T07:27:52.634Z,24.10
2022-08-16T07:28:52.629Z,27.50
2022-08-16T07:29:55.510Z,22.90
2022-08-16T07:30:52.578Z,38.90
2022-08-16T07:31:53.951Z,18.90
2022-08-16T07:32:52.594Z,25.90
2022-08-16T07:33:54.938Z,22.80
2022-08-16T07:34:52.542Z,28.40
2022-08-16T07:35:52.542Z,29.00
2022-08-16T07:36:58.250Z,23.00
2022-08-16T07:37:53.496Z,23.30
2022-08-16T07:38:52.496Z,21.00
2022-08-16T07:39:52.517Z,19.50
2022-08-16T07:41:01.253Z,29.00
2022-08-16T07:41:53.455Z,26.60
2022-08-16T07:42:52.421Z,30.90
2022-08-16T07:43:52.435Z,34.20
2022-08-16T07:44:52.400Z,25.10
2022-08-16T07:45:53.135Z,16.60
2022-08-16T07:46:55.635Z,16.40
2022-08-16T07:47:52.373Z,16.30
2022-08-16T07:48:52.358Z,25.20
2022-08-16T07:49:53.290Z,29.60
2022-08-16T07:50:55.712Z,20.30
2022-08-16T07:51:56.018Z,17.20
2022-08-16T07:52:52.520Z,19.40
2022-08-16T07:54:09.129Z,24.60
2022-08-16T07:54:53.626Z,40.80
2022-08-16T07:55:52.261Z,32.40
2022-08-16T07:56:52.229Z,25.10
2022-08-16T07:57:59.790Z,27.70
2022-08-16T07:58:53.233Z,34.60
2022-08-16T07:59:52.197Z,25.60
2022-08-16T08:00:52.245Z,25.80
2022-08-16T08:01:53.116Z,28.80
2022-08-16T08:02:52.403Z,35.40
2022-08-16T08:03:52.164Z,22.60
2022-08-16T08:04:52.120Z,18.80
2022-08-16T08:05:52.112Z,34.50
2022-08-16T08:06:52.119Z,19.60
2022-08-16T08:07:52.097Z,29.90
2022-08-16T08:08:57.372Z,25.40
2022-08-16T08:09:53.063Z,27.30
2022-08-16T08:10:52.080Z,45.10
2022-08-16T08:11:59.576Z,28.20
2022-08-16T08:12:53.029Z,41.30
2022-08-16T08:13:52.148Z,24.10
2022-08-16T08:14:51.995Z,22.10
2022-08-16T08:15:53.060Z,30.90
2022-08-16T08:16:51.967Z,27.70
2022-08-16T08:17:51.958Z,32.90
2022-08-16T08:18:55.948Z,31.00
2022-08-16T08:19:53.211Z,23.90
2022-08-16T08:20:59.354Z,23.70
2022-08-16T08:21:58.985Z,36.30
2022-08-16T08:22:52.900Z,37.50
2022-08-16T08:23:52.893Z,24.60
2022-08-16T08:24:51.861Z,23.30
2022-08-16T08:25:53.827Z,31.90
2022-08-16T08:26:51.845Z,25.80
2022-08-16T08:27:51.822Z,26.30
2022-08-16T08:28:52.815Z,21.40
2022-08-16T08:30:48.786Z,25.00
2022-08-16T08:31:01.494Z,27.50
2022-08-16T08:31:52.890Z,71.00
2022-08-16T08:33:00.245Z,33.30
2022-08-16T08:33:52.745Z,23.40
2022-08-16T08:34:51.737Z,28.10
2022-08-16T08:35:51.847Z,27.20
2022-08-16T08:36:54.534Z,30.10
2022-08-16T08:37:55.726Z,32.20
2022-08-16T08:38:51.666Z,22.90
2022-08-16T08:39:54.847Z,32.60
2022-08-16T08:40:51.652Z,29.10
2022-08-16T08:41:51.806Z,39.10
2022-08-16T08:42:51.608Z,45.10
2022-08-16T08:43:52.654Z,53.20
2022-08-16T08:44:51.579Z,33.00
2022-08-16T08:45:52.533Z,40.60
2022-08-16T08:46:59.702Z,32.20
2022-08-16T08:47:54.188Z,34.70
2022-08-16T08:49:01.994Z,31.70
2022-08-16T08:49:55.599Z,57.50
2022-08-16T08:50:51.501Z,33.00
2022-08-16T08:51:51.508Z,27.40
2022-08-16T08:52:51.540Z,40.70
2022-08-16T08:53:57.985Z,31.70
2022-08-16T08:54:52.457Z,32.20
2022-08-16T08:55:58.765Z,30.80
2022-08-16T08:56:52.428Z,26.80
2022-08-16T08:57:51.414Z,28.20
2022-08-16T08:58:54.872Z,36.70
2022-08-16T08:59:52.955Z,28.00
2022-08-16T09:00:51.791Z,36.20
2022-08-16T09:01:57.773Z,32.10
2022-08-16T09:02:52.686Z,29.10
2022-08-16T09:03:51.380Z,56.80
2022-08-16T09:04:51.309Z,51.90
2022-08-16T09:05:51.796Z,23.00
2022-08-16T09:06:51.293Z,25.00
2022-08-16T09:08:01.793Z,43.90
2022-08-16T09:08:52.273Z,29.30
2022-08-16T09:09:51.263Z,52.30
2022-08-16T09:11:02.041Z,28.70
2022-08-16T09:12:04.066Z,31.90
2022-08-16T09:12:52.434Z,47.60
2022-08-16T09:13:51.229Z,24.30
2022-08-16T09:14:51.432Z,44.70
2022-08-16T09:15:51.176Z,52.10
2022-08-16T09:17:01.366Z,29.60
2022-08-16T09:17:52.711Z,26.30
2022-08-16T09:18:54.846Z,23.10
2022-08-16T09:19:55.635Z,60.80
2022-08-16T09:20:58.627Z,54.60
2022-08-16T09:21:56.288Z,37.00
2022-08-16T09:22:52.386Z,31.30
2022-08-16T09:23:52.913Z,32.80
2022-08-16T09:24:52.809Z,37.10
2022-08-16T09:25:51.027Z,43.90
2022-08-16T09:26:52.570Z,27.80
2022-08-16T09:27:57.861Z,37.80
2022-08-16T09:29:14.577Z,24.40
2022-08-16T09:29:59.728Z,40.80
2022-08-16T09:30:51.951Z,58.70
2022-08-16T09:31:53.450Z,49.30
2022-08-16T09:32:51.079Z,31.90
2022-08-16T09:33:51.764Z,31.20
2022-08-16T09:34:50.915Z,23.80
2022-08-16T09:35:53.728Z,22.30
2022-08-16T09:36:53.984Z,35.40
2022-08-16T09:38:00.450Z,26.00
2022-08-16T09:38:51.843Z,22.10
2022-08-16T09:39:51.880Z,25.70
2022-08-16T09:40:50.886Z,25.70
2022-08-16T09:41:53.950Z,43.00
2022-08-16T09:42:58.706Z,18.40
2022-08-16T09:43:58.122Z,17.00
2022-08-16T09:45:12.045Z,18.60
2022-08-16T09:45:51.756Z,50.20
2022-08-16T09:46:52.917Z,41.00
2022-08-16T09:47:57.455Z,26.30
2022-08-16T09:48:51.805Z,17.10
2022-08-16T09:49:50.915Z,32.10
2022-08-16T09:50:50.688Z,33.60
2022-08-16T09:51:51.732Z,22.00
2022-08-16T09:52:50.829Z,25.80
2022-08-16T09:53:53.974Z,19.70
2022-08-16T09:54:51.653Z,39.20
2022-08-16T09:55:50.632Z,26.70
2022-08-16T09:56:52.370Z,26.40
2022-08-16T09:57:52.970Z,18.00
2022-08-16T09:59:04.825Z,15.50
2022-08-16T09:59:56.096Z,16.50
2022-08-16T10:00:51.574Z,68.40
2022-08-16T10:01:50.567Z,63.30
2022-08-16T10:02:50.616Z,52.60
2022-08-16T10:04:02.821Z,65.20
2022-08-16T10:04:55.122Z,47.60
2022-08-16T10:05:50.502Z,33.30
2022-08-16T10:06:50.501Z,35.10
2022-08-16T10:07:50.707Z,24.10
2022-08-16T10:09:04.409Z,13.50
2022-08-16T10:09:55.755Z,17.20
2022-08-16T10:10:50.428Z,19.50
2022-08-16T10:11:51.214Z,23.00
2022-08-16T10:12:55.576Z,53.00
2022-08-16T10:13:51.399Z,50.20
2022-08-16T10:14:50.392Z,72.60
2022-08-16T10:15:55.106Z,45.90
2022-08-16T10:16:51.351Z,34.00
2022-08-16T10:18:01.087Z,54.60
2022-08-16T10:19:00.543Z,40.60
2022-08-16T10:19:51.312Z,31.50
2022-08-16T10:20:50.315Z,15.00
2022-08-16T10:21:56.405Z,17.80
2022-08-16T10:22:58.813Z,16.30
2022-08-16T10:23:51.278Z,44.00
2022-08-16T10:24:56.098Z,31.20
2022-08-16T10:27:00.582Z,34.50
2022-08-16T10:27:16.310Z,14.40
2022-08-16T10:27:56.949Z,31.00
2022-08-16T10:28:51.209Z,26.30
2022-08-16T10:29:59.954Z,23.20
2022-08-16T10:30:56.549Z,19.70
2022-08-16T10:31:53.796Z,17.30
2022-08-16T10:32:50.160Z,37.10
2022-08-16T10:33:50.142Z,44.80
2022-08-16T10:34:51.372Z,56.80
2022-08-16T10:35:50.113Z,54.90
2022-08-16T10:36:54.275Z,64.60
2022-08-16T10:37:50.172Z,37.80
2022-08-16T10:38:50.085Z,46.70
2022-08-16T10:39:50.086Z,55.60
2022-08-16T10:40:51.056Z,24.50
2022-08-16T10:41:50.043Z,35.20
2022-08-16T10:42:50.386Z,52.80
2022-08-16T10:43:50.236Z,47.70
2022-08-16T10:44:53.750Z,34.20
2022-08-16T10:45:59.983Z,37.90
2022-08-16T10:46:50.977Z,38.80
2022-08-16T10:48:00.490Z,21.70
2022-08-16T10:48:50.965Z,23.90
2022-08-16T10:49:49.916Z,52.10
2022-08-16T10:50:49.980Z,37.40
2022-08-16T10:52:01.434Z,23.50
2022-08-16T10:52:52.686Z,51.80
2022-08-16T10:53:50.942Z,32.00
2022-08-16T10:55:57.845Z,34.10
2022-08-16T10:56:56.177Z,34.20
2022-08-16T10:57:50.981Z,31.30
2022-08-16T10:58:49.821Z,23.40
2022-08-16T10:59:57.609Z,25.20
2022-08-16T11:00:55.480Z,50.90
2022-08-16T11:02:57.835Z,28.60
2022-08-16T11:03:54.636Z,29.40
2022-08-16T11:05:08.817Z,24.30
2022-08-16T11:06:07.567Z,20.20
2022-08-16T11:07:52.524Z,19.20
2022-08-16T11:09:21.707Z,28.30
2022-08-16T11:09:50.679Z,21.90
2022-08-16T11:11:12.979Z,29.60
2022-08-16T11:12:52.915Z,94.50
2022-08-16T11:13:58.204Z,62.80
2022-08-16T11:15:55.735Z,41.70
2022-08-16T11:17:10.952Z,26.60
2022-08-16T11:18:48.460Z,27.00
2022-08-16T11:19:04.911Z,20.00
2022-08-16T11:20:50.639Z,28.00
2022-08-16T11:22:50.515Z,21.70
2022-08-16T11:23:56.829Z,31.10
2022-08-16T11:25:11.786Z,39.20
2022-08-16T11:26:07.483Z,36.30
2022-08-16T11:27:18.628Z,34.30
2022-08-16T11:27:50.587Z,20.40
2022-08-16T11:29:52.021Z,28.30
2022-08-16T11:30:54.342Z,47.50
2022-08-16T11:31:53.886Z,43.20
2022-08-16T11:32:49.613Z,49.10
2022-08-16T11:33:52.861Z,34.70
2022-08-16T11:35:10.566Z,14.80
2022-08-16T11:36:59.341Z,25.50
2022-08-16T11:38:23.261Z,23.10
2022-08-16T11:38:55.668Z,40.90
2022-08-16T11:39:50.392Z,22.00
2022-08-16T11:40:52.653Z,34.30
2022-08-16T11:41:53.173Z,25.10
2022-08-16T11:42:49.270Z,24.80
2022-08-16T11:43:49.262Z,35.70
2022-08-16T11:44:52.640Z,40.50
2022-08-16T11:45:53.573Z,44.20
2022-08-16T11:46:49.208Z,27.50
2022-08-16T11:47:49.324Z,33.50
2022-08-16T11:48:49.200Z,27.60
2022-08-16T11:49:49.161Z,27.20
2022-08-16T11:50:49.141Z,37.60
2022-08-16T11:51:49.124Z,37.10
2022-08-16T11:52:49.129Z,30.00
2022-08-16T11:53:49.129Z,26.00
2022-08-16T11:54:56.951Z,23.90
2022-08-16T11:55:50.745Z,28.90
2022-08-16T11:56:56.524Z,23.90
2022-08-16T11:57:50.085Z,22.40
2022-08-16T11:58:51.501Z,23.70
2022-08-16T11:59:50.021Z,30.60
2022-08-16T12:00:51.997Z,38.50
2022-08-16T12:01:59.438Z,32.10
2022-08-16T12:02:49.981Z,39.20
2022-08-16T12:03:49.049Z,23.90
2022-08-16T12:04:51.928Z,35.00
2022-08-16T12:05:51.826Z,41.40
2022-08-16T12:06:50.046Z,30.30
2022-08-16T12:07:49.182Z,22.70
2022-08-16T12:08:48.903Z,35.00
2022-08-16T12:09:49.187Z,22.10
2022-08-16T12:10:48.928Z,25.50
2022-08-16T12:11:53.211Z,22.40
2022-08-16T12:12:48.870Z,25.30
2022-08-16T12:13:48.850Z,37.30
2022-08-16T12:14:48.831Z,45.40
2022-08-16T12:15:48.820Z,38.60
2022-08-16T12:16:55.733Z,37.40
2022-08-16T12:17:50.033Z,40.60
2022-08-16T12:19:48.758Z,33.90
2022-08-16T12:20:48.771Z,11.90
2022-08-16T12:23:29.674Z,44.30
2022-08-16T12:23:36.337Z,42.80
2022-08-16T12:25:35.530Z,41.30
2022-08-16T12:25:42.182Z,31.10
2022-08-16T12:26:42.165Z,38.90
2022-08-16T12:27:42.141Z,22.90
2022-08-16T12:28:54.489Z,11.20
2022-08-16T12:29:43.114Z,23.80
2022-08-16T12:30:42.101Z,20.50
2022-08-16T12:32:01.205Z,19.50
2022-08-16T12:32:43.074Z,11.70
2022-08-16T12:33:44.521Z,9.50
2022-08-16T12:34:50.722Z,12.90
2022-08-16T12:35:43.038Z,22.60
2022-08-16T12:36:43.752Z,22.80
2022-08-16T12:37:42.126Z,14.40
2022-08-16T12:38:48.779Z,11.50
2022-08-16T12:39:50.900Z,15.30
2022-08-16T12:40:42.986Z,22.20
2022-08-16T12:41:45.061Z,7.70
2022-08-16T12:42:53.339Z,25.20
2022-08-16T12:43:45.143Z,26.60
2022-08-16T12:44:41.938Z,11.40
2022-08-16T12:45:43.503Z,9.10
2022-08-16T12:46:42.901Z,8.00
2022-08-16T12:47:41.903Z,13.60
2022-08-16T12:48:42.392Z,27.50
2022-08-16T12:49:42.455Z,10.50
2022-08-16T12:50:41.866Z,25.50
2022-08-16T12:51:59.507Z,20.70
2022-08-16T12:52:52.440Z,27.10
2022-08-16T12:54:34.093Z,17.90
2022-08-16T12:54:57.385Z,9.20
2022-08-16T12:55:43.918Z,21.10
2022-08-16T12:56:41.789Z,16.90
2022-08-16T12:57:41.766Z,47.70
2022-08-16T12:58:52.669Z,11.50
2022-08-16T13:10:55.211Z,13.00
2022-08-16T13:10:59.886Z,7.20
2022-08-16T13:15:23.983Z,7.10
2022-08-16T13:15:32.118Z,7.60